Airways and Terminal Forecast

Significant Meteorological Information

WSPH31 RPLL 171312 
RPHI SIGMET A01 VALID 171312/171712 RPLL-
RPHI MANILA FIR EMBD TS OBS WI N0817 E12356 - N0745 E12440 - N0529 E12446 - N0511 E12353 - N0608 E12303 - N0817 E12356 TOP FL520 MOV W 5KT INTSF=

Terminal Aerodrome Forecast

TAF RPLL

171100Z 1712/1818 11006KT 9999 FEW025 TX36/1806Z TN27/1721Z TEMPO 1721/1802 VRB03KT TEMPO 1806/1810 19008KT=

TAF RPVM

171100Z 1712/1818 05007KT 9999 FEW020= 

TAF RPLC

171100Z 1712/1818 22007KT 9999 FEW020 TX37/1806Z TN28/1721Z TEMPO 1712/1718 24006KT=

TAF RPLB

171100Z 1712/1812 06004KT 9999 FEW020 TX36/1806Z TN25/1721Z TEMPO 1712/1718 08009KT=

TAF RPLI

171100Z 1712/1812 28006KT 9999 FEW018 TEMPO 1718/1724 06004KT TEMPO 1803/1809 34012KT=

TAF RPVP

171100Z 1712/1812 09006KT 9999 FEW019 TEMPO 1718/1723 27006KT TEMPO 1803/1809 12010KT=

TAF RPVD

171100Z 1712/1812 04006KT 9999 FEW015 TEMPO 1715/1721 32006KT FEW015 SCT070 TEMPO 1801/1807 07010KT=

TAF RPMR

171100Z 1712/1812 04006KT 9999 FEW018 SCT080 TEMPO 1712/1718 32005KT SCT018 BKN080 TEMPO 1805/1811 18012KT SCT018 BKN080=

TAF RPMD

171100Z 1712/1812 02008KT 9999 FEW016 SCT090 TEMPO 1712/1718 34005KT=

TAF RPMZ

171100Z 1712/1812 26006KT 9999 FEW017 SCT080 TEMPO 1717/1723 VRB02KT -SHRA FEW016CB SCT017 BKN080=

TAF RPVK

171100Z 1712/1812 08008KT 9999 FEW016 TEMPO 1717/1723 12005KT SCT016 BKN070=

 

RPLL FORECAST TAKE-OFF CONDITION

TIME

(UTC)

WIND

(dddffKT)

TEMP

(°C)

QNH

(hPa)

TIME

(UTC)

WIND

(dddffKT)

TEMP

(°C)

QNH

(hPa)

1200

12008KT

31.0

1009.0

1600

11005KT

29.0

1010.0

1300

12007KT

30.0

1009.0

1700

11005KT

29.0

1010.0

1400

12006KT

30.0

1010.0

1800

11005KT

28.0

1009.0

1500

12006KT

29.0

1010.0

1900

11005KT

28.0

1009.0

 

ISSUED AT NAIA AMSS-WD/PAGASA-DOST FOR 1100UTC 17 APRIL 2024

PREPARED BY:   SSDH

CHECKED BY:     MPT

We always find ways to improve our weather products and services. Click Here to get started with our short survey. Your Feedback is important to us.